sensor_id;sensor_type;location;lat;lon;timestamp;pressure;altitude;pressure_sealevel;temperature;humidity
19576;BME280;41589;51.196;7.074;2022-07-30T00:04:58;99085.75;;;21.18;45.61
19576;BME280;41589;51.196;7.074;2022-07-30T00:09:58;99080.56;;;21.16;45.51
19576;BME280;41589;51.196;7.074;2022-07-30T00:14:58;99079.13;;;21.04;46.08
19576;BME280;41589;51.196;7.074;2022-07-30T00:19:59;99076.31;;;20.98;46.22
19576;BME280;41589;51.196;7.074;2022-07-30T00:24:59;99075.84;;;20.94;46.44
19576;BME280;41589;51.196;7.074;2022-07-30T00:30:03;99071.50;;;20.88;46.40
19576;BME280;41589;51.196;7.074;2022-07-30T00:35:04;99075.97;;;20.77;46.96
19576;BME280;41589;51.196;7.074;2022-07-30T00:40:07;99079.16;;;20.74;46.54
19576;BME280;41589;51.196;7.074;2022-07-30T00:45:09;99074.84;;;20.62;47.24
19576;BME280;41589;51.196;7.074;2022-07-30T00:50:11;99079.88;;;20.50;47.73
19576;BME280;41589;51.196;7.074;2022-07-30T00:55:13;99075.22;;;20.47;47.64
19576;BME280;41589;51.196;7.074;2022-07-30T01:00:16;99079.69;;;20.42;47.62
19576;BME280;41589;51.196;7.074;2022-07-30T01:05:16;99065.41;;;20.42;47.84
19576;BME280;41589;51.196;7.074;2022-07-30T01:10:17;99065.63;;;20.44;47.89
19576;BME280;41589;51.196;7.074;2022-07-30T01:15:18;99066.72;;;20.41;47.80
19576;BME280;41589;51.196;7.074;2022-07-30T01:20:25;99065.19;;;20.35;48.01
19576;BME280;41589;51.196;7.074;2022-07-30T01:30:33;99052.50;;;20.30;48.26
19576;BME280;41589;51.196;7.074;2022-07-30T01:35:35;99052.56;;;20.19;48.52
19576;BME280;41589;51.196;7.074;2022-07-30T01:40:37;99063.75;;;20.23;48.54
19576;BME280;41589;51.196;7.074;2022-07-30T01:45:39;99057.50;;;20.18;48.65
19576;BME280;41589;51.196;7.074;2022-07-30T01:50:45;99071.63;;;20.11;48.76
19576;BME280;41589;51.196;7.074;2022-07-30T01:55:47;99067.75;;;20.03;49.01
19576;BME280;41589;51.196;7.074;2022-07-30T02:00:49;99070.88;;;19.99;48.92
19576;BME280;41589;51.196;7.074;2022-07-30T02:05:54;99079.16;;;20.03;48.83
19576;BME280;41589;51.196;7.074;2022-07-30T02:11:01;99079.47;;;19.94;49.67
19576;BME280;41589;51.196;7.074;2022-07-30T02:16:17;99085.72;;;19.92;50.01
19576;BME280;41589;51.196;7.074;2022-07-30T02:21:19;99085.75;;;19.86;49.97
19576;BME280;41589;51.196;7.074;2022-07-30T02:26:22;99078.00;;;19.81;49.87
19576;BME280;41589;51.196;7.074;2022-07-30T02:31:26;99091.81;;;19.72;50.29
19576;BME280;41589;51.196;7.074;2022-07-30T02:36:31;99085.88;;;19.64;50.48
19576;BME280;41589;51.196;7.074;2022-07-30T02:41:34;99097.59;;;19.55;50.96
19576;BME280;41589;51.196;7.074;2022-07-30T02:46:37;99091.16;;;19.43;51.07
19576;BME280;41589;51.196;7.074;2022-07-30T02:51:59;99086.50;;;19.35;51.19
19576;BME280;41589;51.196;7.074;2022-07-30T02:57:00;99094.88;;;19.27;51.31
19576;BME280;41589;51.196;7.074;2022-07-30T03:02:03;99094.06;;;19.21;51.92
19576;BME280;41589;51.196;7.074;2022-07-30T03:07:05;99096.19;;;19.09;51.89
19576;BME280;41589;51.196;7.074;2022-07-30T03:12:09;99092.31;;;19.01;52.35
19576;BME280;41589;51.196;7.074;2022-07-30T03:17:14;99096.19;;;18.92;52.37
19576;BME280;41589;51.196;7.074;2022-07-30T03:22:17;99091.31;;;18.87;52.74
19576;BME280;41589;51.196;7.074;2022-07-30T03:27:19;99099.59;;;18.80;53.08
19576;BME280;41589;51.196;7.074;2022-07-30T03:32:22;99104.50;;;18.73;53.59
19576;BME280;41589;51.196;7.074;2022-07-30T03:37:24;99094.97;;;18.65;54.13
19576;BME280;41589;51.196;7.074;2022-07-30T03:42:26;99098.59;;;18.66;54.16
19576;BME280;41589;51.196;7.074;2022-07-30T03:47:31;99099.34;;;18.66;54.42
19576;BME280;41589;51.196;7.074;2022-07-30T03:52:37;99111.78;;;18.63;54.46
19576;BME280;41589;51.196;7.074;2022-07-30T03:57:40;99110.50;;;18.59;54.60
19576;BME280;41589;51.196;7.074;2022-07-30T04:02:43;99115.94;;;18.57;55.24
19576;BME280;41589;51.196;7.074;2022-07-30T04:07:52;99124.25;;;18.55;55.29
19576;BME280;41589;51.196;7.074;2022-07-30T04:12:54;99122.69;;;18.48;55.58
19576;BME280;41589;51.196;7.074;2022-07-30T04:18:00;99125.75;;;18.39;56.32
19576;BME280;41589;51.196;7.074;2022-07-30T04:23:02;99133.25;;;18.36;56.67
19576;BME280;41589;51.196;7.074;2022-07-30T04:28:03;99128.34;;;18.37;57.05
19576;BME280;41589;51.196;7.074;2022-07-30T04:33:06;99148.78;;;18.41;56.96
19576;BME280;41589;51.196;7.074;2022-07-30T04:38:25;99145.75;;;18.44;57.18
19576;BME280;41589;51.196;7.074;2022-07-30T04:43:26;99153.25;;;18.48;57.21
19576;BME280;41589;51.196;7.074;2022-07-30T04:48:27;99148.84;;;18.58;57.40
19576;BME280;41589;51.196;7.074;2022-07-30T04:53:46;99157.16;;;18.67;57.40
19576;BME280;41589;51.196;7.074;2022-07-30T04:58:51;99165.69;;;18.72;57.57
19576;BME280;41589;51.196;7.074;2022-07-30T05:03:52;99171.66;;;18.80;57.57
19576;BME280;41589;51.196;7.074;2022-07-30T05:08:54;99184.88;;;18.78;57.79
19576;BME280;41589;51.196;7.074;2022-07-30T05:13:55;99182.81;;;18.89;57.83
19576;BME280;41589;51.196;7.074;2022-07-30T05:18:56;99182.00;;;18.94;58.00
19576;BME280;41589;51.196;7.074;2022-07-30T05:23:57;99195.22;;;19.03;57.94
19576;BME280;41589;51.196;7.074;2022-07-30T05:29:07;99189.78;;;19.16;57.90
19576;BME280;41589;51.196;7.074;2022-07-30T05:34:20;99184.84;;;19.22;57.75
19576;BME280;41589;51.196;7.074;2022-07-30T05:39:20;99195.25;;;19.31;57.68
19576;BME280;41589;51.196;7.074;2022-07-30T05:44:39;99191.59;;;19.36;57.75
19576;BME280;41589;51.196;7.074;2022-07-30T05:49:40;99193.13;;;19.48;57.83
19576;BME280;41589;51.196;7.074;2022-07-30T05:54:44;99193.13;;;19.43;58.11
19576;BME280;41589;51.196;7.074;2022-07-30T06:00:05;99200.09;;;19.64;57.60
19576;BME280;41589;51.196;7.074;2022-07-30T06:05:25;99202.91;;;19.75;58.05
19576;BME280;41589;51.196;7.074;2022-07-30T06:10:26;99206.53;;;19.76;57.53
19576;BME280;41589;51.196;7.074;2022-07-30T06:15:27;99204.44;;;19.82;57.89
19576;BME280;41589;51.196;7.074;2022-07-30T06:20:28;99214.47;;;20.05;57.46
19576;BME280;41589;51.196;7.074;2022-07-30T06:25:40;99205.88;;;20.16;57.19
19576;BME280;41589;51.196;7.074;2022-07-30T06:30:41;99219.59;;;20.24;57.19
19576;BME280;41589;51.196;7.074;2022-07-30T06:35:41;99215.25;;;20.11;57.69
19576;BME280;41589;51.196;7.074;2022-07-30T06:40:42;99224.34;;;19.99;58.42
19576;BME280;41589;51.196;7.074;2022-07-30T06:45:50;99222.22;;;20.16;58.35
19576;BME280;41589;51.196;7.074;2022-07-30T06:50:58;99227.56;;;20.42;58.29
19576;BME280;41589;51.196;7.074;2022-07-30T06:55:59;99231.00;;;20.70;57.97
19576;BME280;41589;51.196;7.074;2022-07-30T07:01:03;99234.41;;;20.69;57.54
19576;BME280;41589;51.196;7.074;2022-07-30T07:06:04;99237.50;;;20.71;57.38
19576;BME280;41589;51.196;7.074;2022-07-30T07:11:05;99244.66;;;20.53;57.37
19576;BME280;41589;51.196;7.074;2022-07-30T07:16:15;99247.09;;;20.32;57.98
19576;BME280;41589;51.196;7.074;2022-07-30T07:21:21;99265.38;;;20.07;58.50
19576;BME280;41589;51.196;7.074;2022-07-30T07:26:23;99260.97;;;20.11;59.03
19576;BME280;41589;51.196;7.074;2022-07-30T07:31:25;99257.00;;;20.26;58.65
19576;BME280;41589;51.196;7.074;2022-07-30T07:36:25;99261.09;;;20.36;58.34
19576;BME280;41589;51.196;7.074;2022-07-30T07:41:26;99262.56;;;20.54;58.36
19576;BME280;41589;51.196;7.074;2022-07-30T07:46:26;99256.53;;;20.63;57.85
19576;BME280;41589;51.196;7.074;2022-07-30T07:51:27;99260.19;;;20.58;57.50
19576;BME280;41589;51.196;7.074;2022-07-30T07:56:27;99264.81;;;20.72;57.63
19576;BME280;41589;51.196;7.074;2022-07-30T08:01:29;99266.94;;;20.60;56.88
19576;BME280;41589;51.196;7.074;2022-07-30T08:06:48;99266.22;;;20.48;57.63
19576;BME280;41589;51.196;7.074;2022-07-30T08:12:08;99276.81;;;20.59;57.65
19576;BME280;41589;51.196;7.074;2022-07-30T08:17:27;99276.94;;;20.89;56.24
19576;BME280;41589;51.196;7.074;2022-07-30T08:22:44;99275.91;;;20.81;56.46
19576;BME280;41589;51.196;7.074;2022-07-30T08:27:45;99274.44;;;21.10;55.51
19576;BME280;41589;51.196;7.074;2022-07-30T08:32:45;99266.06;;;21.18;55.79
19576;BME280;41589;51.196;7.074;2022-07-30T08:37:46;99271.03;;;21.42;55.46
19576;BME280;41589;51.196;7.074;2022-07-30T08:42:48;99266.31;;;21.44;53.74
19576;BME280;41589;51.196;7.074;2022-07-30T08:47:51;99266.63;;;21.71;54.00
19576;BME280;41589;51.196;7.074;2022-07-30T08:53:02;99274.41;;;21.95;52.78
19576;BME280;41589;51.196;7.074;2022-07-30T08:58:04;99278.28;;;22.22;51.60
19576;BME280;41589;51.196;7.074;2022-07-30T09:03:05;99289.50;;;22.44;51.16
19576;BME280;41589;51.196;7.074;2022-07-30T09:08:05;99281.91;;;23.03;50.79
19576;BME280;41589;51.196;7.074;2022-07-30T09:18:37;99286.66;;;23.46;48.83
19576;BME280;41589;51.196;7.074;2022-07-30T09:23:39;99277.91;;;23.83;48.41
19576;BME280;41589;51.196;7.074;2022-07-30T09:29:24;99284.34;;;24.16;46.88
19576;BME280;41589;51.196;7.074;2022-07-30T09:34:43;99283.63;;;24.36;47.49
19576;BME280;41589;51.196;7.074;2022-07-30T09:40:19;99287.19;;;24.29;46.40
19576;BME280;41589;51.196;7.074;2022-07-30T09:45:51;99274.56;;;24.45;46.21
19576;BME280;41589;51.196;7.074;2022-07-30T09:50:53;99277.66;;;24.61;44.76
19576;BME280;41589;51.196;7.074;2022-07-30T09:55:54;99279.44;;;24.51;44.87
19576;BME280;41589;51.196;7.074;2022-07-30T10:00:56;99274.09;;;24.55;45.32
19576;BME280;41589;51.196;7.074;2022-07-30T10:06:16;99280.78;;;24.50;44.00
19576;BME280;41589;51.196;7.074;2022-07-30T10:11:21;99284.31;;;24.29;43.56
19576;BME280;41589;51.196;7.074;2022-07-30T10:16:27;99277.78;;;24.89;43.28
19576;BME280;41589;51.196;7.074;2022-07-30T10:21:29;99279.00;;;25.56;41.75
19576;BME280;41589;51.196;7.074;2022-07-30T10:26:49;99288.16;;;25.68;40.26
19576;BME280;41589;51.196;7.074;2022-07-30T10:32:08;99286.44;;;25.94;38.63
19576;BME280;41589;51.196;7.074;2022-07-30T10:37:10;99267.94;;;25.89;38.41
19576;BME280;41589;51.196;7.074;2022-07-30T10:47:25;99285.44;;;25.91;37.77
19576;BME280;41589;51.196;7.074;2022-07-30T10:52:42;99287.81;;;26.00;37.35
19576;BME280;41589;51.196;7.074;2022-07-30T11:03:20;99287.47;;;25.54;39.51
19576;BME280;41589;51.196;7.074;2022-07-30T11:08:29;99279.97;;;25.80;38.27
19576;BME280;41589;51.196;7.074;2022-07-30T11:13:48;99269.22;;;25.59;37.74
19576;BME280;41589;51.196;7.074;2022-07-30T11:19:13;99271.00;;;25.83;37.82
19576;BME280;41589;51.196;7.074;2022-07-30T11:24:43;99270.16;;;26.04;36.84
19576;BME280;41589;51.196;7.074;2022-07-30T11:29:44;99260.53;;;26.01;35.73
19576;BME280;41589;51.196;7.074;2022-07-30T11:34:48;99259.78;;;25.72;36.21
19576;BME280;41589;51.196;7.074;2022-07-30T11:50:21;99254.72;;;25.65;34.73
19576;BME280;41589;51.196;7.074;2022-07-30T11:55:24;99262.69;;;25.59;35.07
19576;BME280;41589;51.196;7.074;2022-07-30T12:00:32;99255.97;;;25.56;35.17
19576;BME280;41589;51.196;7.074;2022-07-30T12:05:33;99267.00;;;25.45;34.94
19576;BME280;41589;51.196;7.074;2022-07-30T12:10:34;99262.69;;;25.80;34.05
19576;BME280;41589;51.196;7.074;2022-07-30T12:15:37;99273.66;;;25.81;34.96
19576;BME280;41589;51.196;7.074;2022-07-30T12:20:39;99268.00;;;25.68;33.81
19576;BME280;41589;51.196;7.074;2022-07-30T12:25:41;99266.31;;;25.73;34.14
19576;BME280;41589;51.196;7.074;2022-07-30T12:30:42;99254.28;;;25.89;34.01
19576;BME280;41589;51.196;7.074;2022-07-30T12:35:47;99261.97;;;25.87;32.75
19576;BME280;41589;51.196;7.074;2022-07-30T12:40:53;99261.72;;;25.77;33.64
19576;BME280;41589;51.196;7.074;2022-07-30T12:45:57;99245.38;;;25.80;33.04
19576;BME280;41589;51.196;7.074;2022-07-30T12:51:08;99247.75;;;25.89;32.16
19576;BME280;41589;51.196;7.074;2022-07-30T12:56:15;99250.81;;;25.83;31.28
19576;BME280;41589;51.196;7.074;2022-07-30T13:01:16;99242.63;;;26.03;31.78
19576;BME280;41589;51.196;7.074;2022-07-30T13:06:18;99250.84;;;25.91;31.46
19576;BME280;41589;51.196;7.074;2022-07-30T13:11:22;99246.28;;;25.96;32.39
19576;BME280;41589;51.196;7.074;2022-07-30T13:16:23;99253.53;;;25.89;31.30
19576;BME280;41589;51.196;7.074;2022-07-30T13:21:23;99264.81;;;25.79;32.09
19576;BME280;41589;51.196;7.074;2022-07-30T13:26:24;99258.41;;;26.02;33.20
19576;BME280;41589;51.196;7.074;2022-07-30T13:31:25;99252.97;;;26.27;32.60
19576;BME280;41589;51.196;7.074;2022-07-30T13:36:25;99260.94;;;26.41;32.81
19576;BME280;41589;51.196;7.074;2022-07-30T13:41:26;99254.75;;;26.81;32.62
19576;BME280;41589;51.196;7.074;2022-07-30T13:46:26;99253.19;;;26.80;31.28
19576;BME280;41589;51.196;7.074;2022-07-30T13:51:27;99241.06;;;26.74;31.89
19576;BME280;41589;51.196;7.074;2022-07-30T13:56:27;99251.47;;;26.77;32.39
19576;BME280;41589;51.196;7.074;2022-07-30T14:01:28;99250.56;;;26.90;31.66
19576;BME280;41589;51.196;7.074;2022-07-30T14:06:28;99244.59;;;27.03;31.05
19576;BME280;41589;51.196;7.074;2022-07-30T14:11:30;99239.34;;;26.86;31.54
19576;BME280;41589;51.196;7.074;2022-07-30T14:16:30;99235.47;;;26.68;31.97
19576;BME280;41589;51.196;7.074;2022-07-30T14:21:31;99224.84;;;26.56;32.57
19576;BME280;41589;51.196;7.074;2022-07-30T14:26:31;99230.88;;;26.81;33.03
19576;BME280;41589;51.196;7.074;2022-07-30T14:31:33;99221.13;;;26.99;33.16
19576;BME280;41589;51.196;7.074;2022-07-30T14:36:33;99226.16;;;27.21;32.17
19576;BME280;41589;51.196;7.074;2022-07-30T14:41:36;99221.50;;;26.95;32.96
19576;BME280;41589;51.196;7.074;2022-07-30T14:46:38;99217.28;;;27.19;32.43
19576;BME280;41589;51.196;7.074;2022-07-30T14:51:40;99209.41;;;27.20;31.63
19576;BME280;41589;51.196;7.074;2022-07-30T14:56:40;99215.34;;;26.91;32.13
19576;BME280;41589;51.196;7.074;2022-07-30T15:01:41;99220.34;;;26.91;31.60
19576;BME280;41589;51.196;7.074;2022-07-30T15:06:42;99224.31;;;26.72;31.54
19576;BME280;41589;51.196;7.074;2022-07-30T15:11:43;99213.16;;;26.77;31.46
19576;BME280;41589;51.196;7.074;2022-07-30T15:16:43;99220.53;;;26.93;31.60
19576;BME280;41589;51.196;7.074;2022-07-30T15:21:44;99210.09;;;26.82;31.35
19576;BME280;41589;51.196;7.074;2022-07-30T15:26:44;99213.91;;;26.69;31.55
19576;BME280;41589;51.196;7.074;2022-07-30T15:31:46;99216.41;;;26.73;31.73
19576;BME280;41589;51.196;7.074;2022-07-30T15:36:46;99223.16;;;26.68;31.75
19576;BME280;41589;51.196;7.074;2022-07-30T15:41:47;99214.41;;;26.45;32.55
19576;BME280;41589;51.196;7.074;2022-07-30T15:46:47;99217.28;;;26.37;32.31
19576;BME280;41589;51.196;7.074;2022-07-30T15:51:48;99224.47;;;26.23;32.51
19576;BME280;41589;51.196;7.074;2022-07-30T15:56:52;99220.06;;;26.22;32.96
19576;BME280;41589;51.196;7.074;2022-07-30T16:01:53;99217.94;;;26.23;33.53
19576;BME280;41589;51.196;7.074;2022-07-30T16:06:53;99221.28;;;26.34;33.00
19576;BME280;41589;51.196;7.074;2022-07-30T16:11:57;99219.56;;;26.31;32.61
19576;BME280;41589;51.196;7.074;2022-07-30T16:16:57;99217.44;;;26.32;33.20
19576;BME280;41589;51.196;7.074;2022-07-30T16:21:58;99213.94;;;26.26;33.41
19576;BME280;41589;51.196;7.074;2022-07-30T16:26:58;99221.66;;;26.31;33.58
19576;BME280;41589;51.196;7.074;2022-07-30T16:31:59;99196.34;;;26.52;33.32
19576;BME280;41589;51.196;7.074;2022-07-30T16:36:59;99203.69;;;26.61;32.70
19576;BME280;41589;51.196;7.074;2022-07-30T16:42:00;99196.00;;;26.71;33.22
19576;BME280;41589;51.196;7.074;2022-07-30T16:47:01;99205.03;;;26.60;32.65
19576;BME280;41589;51.196;7.074;2022-07-30T16:52:02;99204.97;;;26.44;32.83
19576;BME280;41589;51.196;7.074;2022-07-30T16:57:02;99212.75;;;26.21;33.60
19576;BME280;41589;51.196;7.074;2022-07-30T17:02:03;99202.31;;;26.10;33.67
19576;BME280;41589;51.196;7.074;2022-07-30T17:07:03;99202.69;;;26.07;33.31
19576;BME280;41589;51.196;7.074;2022-07-30T17:12:04;99200.53;;;26.00;33.44
19576;BME280;41589;51.196;7.074;2022-07-30T17:17:05;99197.06;;;26.01;34.08
19576;BME280;41589;51.196;7.074;2022-07-30T17:22:06;99202.59;;;25.92;34.52
19576;BME280;41589;51.196;7.074;2022-07-30T17:27:06;99200.78;;;26.09;34.52
19576;BME280;41589;51.196;7.074;2022-07-30T17:32:07;99207.59;;;25.91;34.30
19576;BME280;41589;51.196;7.074;2022-07-30T17:37:07;99202.25;;;25.95;34.70
19576;BME280;41589;51.196;7.074;2022-07-30T17:42:09;99212.25;;;25.94;34.93
19576;BME280;41589;51.196;7.074;2022-07-30T17:47:10;99222.38;;;25.87;34.64
19576;BME280;41589;51.196;7.074;2022-07-30T17:52:10;99219.81;;;25.76;35.22
19576;BME280;41589;51.196;7.074;2022-07-30T17:57:11;99221.25;;;25.62;35.30
19576;BME280;41589;51.196;7.074;2022-07-30T18:02:11;99223.13;;;25.59;35.53
19576;BME280;41589;51.196;7.074;2022-07-30T18:07:12;99238.66;;;25.56;35.51
19576;BME280;41589;51.196;7.074;2022-07-30T18:12:12;99224.63;;;25.53;36.39
19576;BME280;41589;51.196;7.074;2022-07-30T18:17:13;99236.50;;;25.49;36.15
19576;BME280;41589;51.196;7.074;2022-07-30T18:22:13;99226.81;;;25.39;35.46
19576;BME280;41589;51.196;7.074;2022-07-30T18:27:13;99234.19;;;25.27;35.83
19576;BME280;41589;51.196;7.074;2022-07-30T18:32:14;99231.31;;;25.27;35.67
19576;BME280;41589;51.196;7.074;2022-07-30T18:37:14;99247.63;;;25.24;35.73
19576;BME280;41589;51.196;7.074;2022-07-30T18:42:15;99257.72;;;25.18;36.11
19576;BME280;41589;51.196;7.074;2022-07-30T18:47:15;99245.81;;;25.14;35.98
19576;BME280;41589;51.196;7.074;2022-07-30T18:52:17;99249.28;;;25.20;36.18
19576;BME280;41589;51.196;7.074;2022-07-30T18:57:17;99249.28;;;25.20;36.19
19576;BME280;41589;51.196;7.074;2022-07-30T19:02:19;99250.88;;;25.21;36.86
19576;BME280;41589;51.196;7.074;2022-07-30T19:07:19;99255.41;;;25.16;36.80
19576;BME280;41589;51.196;7.074;2022-07-30T19:12:24;99246.28;;;25.04;37.06
19576;BME280;41589;51.196;7.074;2022-07-30T19:17:26;99244.50;;;25.01;37.33
19576;BME280;41589;51.196;7.074;2022-07-30T19:22:27;99244.84;;;24.98;37.14
19576;BME280;41589;51.196;7.074;2022-07-30T19:27:27;99241.91;;;24.90;37.42
19576;BME280;41589;51.196;7.074;2022-07-30T19:32:27;99252.34;;;24.80;37.69
19576;BME280;41589;51.196;7.074;2022-07-30T19:37:28;99253.03;;;24.73;37.87
19576;BME280;41589;51.196;7.074;2022-07-30T19:42:28;99255.81;;;24.65;38.03
19576;BME280;41589;51.196;7.074;2022-07-30T19:47:29;99259.94;;;24.57;37.61
19576;BME280;41589;51.196;7.074;2022-07-30T19:52:29;99264.50;;;24.52;37.75
19576;BME280;41589;51.196;7.074;2022-07-30T19:57:30;99265.81;;;24.51;37.91
19576;BME280;41589;51.196;7.074;2022-07-30T20:02:30;99260.84;;;24.52;37.67
19576;BME280;41589;51.196;7.074;2022-07-30T20:07:34;99264.59;;;24.46;37.96
19576;BME280;41589;51.196;7.074;2022-07-30T20:12:36;99260.19;;;24.45;37.98
19576;BME280;41589;51.196;7.074;2022-07-30T20:17:36;99252.31;;;24.46;38.18
19576;BME280;41589;51.196;7.074;2022-07-30T20:22:37;99269.59;;;24.46;38.05
19576;BME280;41589;51.196;7.074;2022-07-30T20:27:37;99267.63;;;24.41;38.26
19576;BME280;41589;51.196;7.074;2022-07-30T20:32:39;99268.81;;;24.45;38.36
19576;BME280;41589;51.196;7.074;2022-07-30T20:37:39;99277.03;;;24.41;38.23
19576;BME280;41589;51.196;7.074;2022-07-30T20:42:40;99277.78;;;24.42;38.03
19576;BME280;41589;51.196;7.074;2022-07-30T20:47:41;99276.25;;;24.41;38.23
19576;BME280;41589;51.196;7.074;2022-07-30T20:52:43;99287.75;;;24.41;38.40
19576;BME280;41589;51.196;7.074;2022-07-30T20:57:44;99285.72;;;24.36;38.81
19576;BME280;41589;51.196;7.074;2022-07-30T21:02:44;99276.88;;;24.34;38.68
19576;BME280;41589;51.196;7.074;2022-07-30T21:07:45;99277.66;;;24.34;38.17
19576;BME280;41589;51.196;7.074;2022-07-30T21:12:45;99266.72;;;24.33;38.05
19576;BME280;41589;51.196;7.074;2022-07-30T21:17:46;99255.19;;;24.33;38.07
19576;BME280;41589;51.196;7.074;2022-07-30T21:22:46;99263.63;;;24.31;38.11
19576;BME280;41589;51.196;7.074;2022-07-30T21:27:47;99268.03;;;24.32;38.07
19576;BME280;41589;51.196;7.074;2022-07-30T21:32:47;99266.72;;;24.33;38.13
19576;BME280;41589;51.196;7.074;2022-07-30T21:37:47;99249.34;;;24.25;38.42
19576;BME280;41589;51.196;7.074;2022-07-30T21:42:48;99258.31;;;24.22;38.30
19576;BME280;41589;51.196;7.074;2022-07-30T21:47:48;99259.75;;;24.15;38.48
19576;BME280;41589;51.196;7.074;2022-07-30T21:52:50;99248.38;;;24.09;38.76
19576;BME280;41589;51.196;7.074;2022-07-30T21:57:50;99246.06;;;24.08;38.93
19576;BME280;41589;51.196;7.074;2022-07-30T22:02:50;99241.31;;;23.97;39.03
19576;BME280;41589;51.196;7.074;2022-07-30T22:07:51;99241.41;;;23.92;39.08
19576;BME280;41589;51.196;7.074;2022-07-30T22:12:51;99237.56;;;23.89;39.37
19576;BME280;41589;51.196;7.074;2022-07-30T22:17:52;99233.03;;;23.80;39.65
19576;BME280;41589;51.196;7.074;2022-07-30T22:22:57;99249.06;;;23.76;39.57
19576;BME280;41589;51.196;7.074;2022-07-30T22:27:57;99246.97;;;23.76;39.53
19576;BME280;41589;51.196;7.074;2022-07-30T22:33:15;99235.25;;;23.74;39.63
19576;BME280;41589;51.196;7.074;2022-07-30T22:38:16;99232.38;;;23.74;39.88
19576;BME280;41589;51.196;7.074;2022-07-30T22:43:17;99228.94;;;23.76;39.84
19576;BME280;41589;51.196;7.074;2022-07-30T22:48:17;99233.47;;;23.71;39.88
19576;BME280;41589;51.196;7.074;2022-07-30T22:53:18;99225.91;;;23.68;40.02
19576;BME280;41589;51.196;7.074;2022-07-30T22:58:18;99233.09;;;23.61;40.33
19576;BME280;41589;51.196;7.074;2022-07-30T23:03:19;99230.22;;;23.48;40.29
19576;BME280;41589;51.196;7.074;2022-07-30T23:08:20;99235.53;;;23.44;40.69
19576;BME280;41589;51.196;7.074;2022-07-30T23:13:20;99229.09;;;23.38;40.79
19576;BME280;41589;51.196;7.074;2022-07-30T23:18:21;99231.19;;;23.38;40.64
19576;BME280;41589;51.196;7.074;2022-07-30T23:23:21;99230.84;;;23.41;40.80
19576;BME280;41589;51.196;7.074;2022-07-30T23:28:22;99224.03;;;23.44;40.53
19576;BME280;41589;51.196;7.074;2022-07-30T23:33:23;99222.78;;;23.40;40.88
19576;BME280;41589;51.196;7.074;2022-07-30T23:38:24;99216.81;;;23.38;40.54
19576;BME280;41589;51.196;7.074;2022-07-30T23:43:24;99212.06;;;23.40;40.73
19576;BME280;41589;51.196;7.074;2022-07-30T23:48:25;99204.44;;;23.29;40.91
19576;BME280;41589;51.196;7.074;2022-07-30T23:53:25;99210.72;;;23.28;40.70
19576;BME280;41589;51.196;7.074;2022-07-30T23:58:26;99205.31;;;23.24;40.96
